Time;durP1;ratioP1;P1;durP2;ratioP2;P2;SDS_P1;SDS_P2;PMS_P1;PMS_P2;Temp;Humidity;BMP_temperature;BMP_pressure;BME280_temperature;BME280_humidity;BME280_pressure;Samples;Min_cycle;Max_cycle;Signal;HPM_P1;HPM_P2
2022/05/13 00:02:21;;;;;;;;;;;19.30;99.90;;;;;;5069016;28;19909;-70
2022/05/13 00:04:46;;;;;;;;;;;19.20;99.90;;;;;;5066017;28;19940;-71
2022/05/13 00:07:12;;;;;;;;;;;19.20;99.90;;;;;;5070927;28;19913;-72
2022/05/13 00:12:26;;;;;;;;;;;19.10;99.90;;;;;;5065088;28;19920;-72
2022/05/13 00:14:51;;;;;;;;;;;19.10;99.90;;;;;;5069902;28;20372;-72
2022/05/13 00:17:17;;;;;;;;;;;19.00;99.90;;;;;;5049820;28;19916;-71
2022/05/13 00:19:43;;;;;;;;;;;19.10;99.90;;;;;;5064056;28;19997;-72
2022/05/13 00:22:09;;;;;;;;;;;19.00;99.90;;;;;;5061207;28;19923;-70
2022/05/13 00:24:35;;;;;;;;;;;18.90;99.90;;;;;;5064032;28;19929;-73
2022/05/13 00:27:01;;;;;;;;;;;18.90;99.90;;;;;;5067678;28;19916;-70
2022/05/13 00:29:27;;;;;;;;;;;18.80;99.90;;;;;;5066548;28;19992;-70
2022/05/13 00:31:52;;;;;;;;;;;18.70;99.90;;;;;;5071522;28;19928;-70
2022/05/13 00:34:19;;;;;;;;;;;18.70;99.90;;;;;;5071378;28;19913;-70
2022/05/13 00:36:44;;;;;;;;;;;18.60;99.90;;;;;;5066169;28;19921;-71
2022/05/13 00:39:10;;;;;;;;;;;18.50;99.90;;;;;;5061949;28;19917;-71
2022/05/13 00:41:36;;;;;;;;;;;18.40;99.90;;;;;;5067137;28;19935;-71
2022/05/13 00:44:02;;;;;;;;;;;18.40;99.90;;;;;;5050636;28;20357;-71
2022/05/13 00:46:28;;;;;;;;;;;18.40;99.90;;;;;;5071993;28;19912;-71
2022/05/13 00:48:54;;;;;;;;;;;18.40;99.90;;;;;;5071755;28;19939;-70
2022/05/13 00:51:22;;;;;;;;;;;18.30;99.90;;;;;;5071379;28;19919;-72
2022/05/13 00:53:48;;;;;;;;;;;18.30;99.90;;;;;;5061473;28;19912;-71
2022/05/13 00:56:15;;;;;;;;;;;18.20;99.90;;;;;;5044670;28;20032;-69
2022/05/13 00:58:42;;;;;;;;;;;18.30;99.90;;;;;;5066268;28;19928;-71
2022/05/13 01:01:07;;;;;;;;;;;18.30;99.90;;;;;;5063319;28;19917;-71
2022/05/13 01:03:35;;;;;;;;;;;18.20;99.90;;;;;;5064486;28;19915;-71
2022/05/13 01:06:03;;;;;;;;;;;18.30;99.90;;;;;;5069831;28;19896;-69
2022/05/13 01:08:31;;;;;;;;;;;18.30;99.90;;;;;;5070692;28;19921;-70
2022/05/13 01:10:57;;;;;;;;;;;18.30;99.90;;;;;;5072454;28;19912;-69
2022/05/13 01:13:23;;;;;;;;;;;18.30;99.90;;;;;;5072087;28;19964;-70
2022/05/13 01:15:51;;;;;;;;;;;18.40;99.90;;;;;;5074283;28;19917;-71
2022/05/13 01:18:28;;;;;;;;;;;18.40;99.90;;;;;;5066409;28;19969;-70
2022/05/13 01:20:53;;;;;;;;;;;18.30;99.90;;;;;;5071209;28;19984;-70
2022/05/13 01:23:21;;;;;;;;;;;18.40;99.90;;;;;;5070755;28;19938;-71
2022/05/13 01:25:51;;;;;;;;;;;18.40;99.90;;;;;;5064313;28;19919;-72
2022/05/13 01:28:18;;;;;;;;;;;18.40;99.90;;;;;;5062214;28;19919;-71
2022/05/13 01:30:46;;;;;;;;;;;18.40;99.90;;;;;;5065124;28;19988;-72
2022/05/13 01:33:12;;;;;;;;;;;18.50;99.90;;;;;;5068336;28;19913;-75
2022/05/13 01:35:38;;;;;;;;;;;18.40;99.90;;;;;;5072157;28;19911;-74
2022/05/13 01:38:04;;;;;;;;;;;18.40;99.90;;;;;;5069555;28;19916;-71
2022/05/13 01:40:29;;;;;;;;;;;18.40;99.90;;;;;;5062334;28;19913;-70
2022/05/13 01:42:55;;;;;;;;;;;18.30;99.90;;;;;;5058733;28;19916;-71
2022/05/13 01:45:20;;;;;;;;;;;18.20;99.90;;;;;;5054627;28;19928;-70
2022/05/13 01:47:46;;;;;;;;;;;18.10;99.90;;;;;;5058604;28;19909;-72
2022/05/13 01:50:12;;;;;;;;;;;18.00;99.90;;;;;;5051303;28;19913;-73
2022/05/13 01:52:37;;;;;;;;;;;18.00;99.90;;;;;;5075536;28;19968;-74
2022/05/13 01:55:03;;;;;;;;;;;17.90;99.90;;;;;;5073610;28;19912;-74
2022/05/13 01:57:28;;;;;;;;;;;17.90;99.90;;;;;;5074198;28;19916;-74
2022/05/13 01:59:55;;;;;;;;;;;17.90;99.90;;;;;;5072349;28;19956;-71
2022/05/13 02:02:20;;;;;;;;;;;17.90;99.90;;;;;;5071571;28;19947;-73
2022/05/13 02:04:46;;;;;;;;;;;17.90;99.90;;;;;;5070381;28;20410;-72
2022/05/13 02:07:12;;;;;;;;;;;17.80;99.90;;;;;;5071527;28;19912;-71
2022/05/13 02:09:37;;;;;;;;;;;17.90;99.90;;;;;;5045529;28;19913;-73
2022/05/13 02:12:03;;;;;;;;;;;17.90;99.90;;;;;;5069375;28;19936;-75
2022/05/13 02:14:29;;;;;;;;;;;17.90;99.90;;;;;;5047643;28;19909;-70
2022/05/13 02:16:54;;;;;;;;;;;17.80;99.90;;;;;;5064045;28;20004;-72
2022/05/13 02:19:20;;;;;;;;;;;17.90;99.90;;;;;;5059785;28;20021;-73
2022/05/13 02:21:45;;;;;;;;;;;17.90;99.90;;;;;;5046254;28;19924;-74
2022/05/13 02:24:11;;;;;;;;;;;17.90;99.90;;;;;;5068187;28;19909;-73
2022/05/13 02:26:36;;;;;;;;;;;17.90;99.90;;;;;;5052147;28;19917;-73
2022/05/13 02:29:02;;;;;;;;;;;17.90;99.90;;;;;;5062798;28;20042;-73
2022/05/13 02:31:29;;;;;;;;;;;18.00;99.90;;;;;;5060035;28;19921;-72
2022/05/13 02:33:55;;;;;;;;;;;18.00;99.90;;;;;;5044787;28;19916;-72
2022/05/13 02:36:20;;;;;;;;;;;18.10;99.90;;;;;;5067186;28;19964;-75
2022/05/13 02:38:46;;;;;;;;;;;18.10;99.90;;;;;;5060043;28;20270;-71
2022/05/13 02:41:12;;;;;;;;;;;18.10;99.90;;;;;;5049110;28;19919;-72
2022/05/13 02:43:41;;;;;;;;;;;18.10;99.90;;;;;;5053051;28;20318;-72
2022/05/13 02:46:07;;;;;;;;;;;18.00;99.90;;;;;;5053016;28;19916;-70
2022/05/13 02:48:33;;;;;;;;;;;18.10;99.90;;;;;;5052353;28;20304;-72
2022/05/13 02:50:58;;;;;;;;;;;18.10;99.90;;;;;;5050948;28;19921;-71
2022/05/13 02:53:25;;;;;;;;;;;17.90;99.90;;;;;;5054846;28;19952;-71
2022/05/13 02:55:50;;;;;;;;;;;17.90;99.90;;;;;;5052726;28;19917;-71
2022/05/13 02:58:16;;;;;;;;;;;17.90;99.90;;;;;;5033850;28;19923;-71
2022/05/13 03:00:42;;;;;;;;;;;17.80;99.90;;;;;;5054399;28;19948;-73
2022/05/13 03:03:07;;;;;;;;;;;17.90;99.90;;;;;;5051344;28;20392;-71
2022/05/13 03:05:33;;;;;;;;;;;17.90;99.90;;;;;;5050473;28;20002;-73
2022/05/13 03:08:01;;;;;;;;;;;17.80;99.90;;;;;;5052006;28;20004;-73
2022/05/13 03:10:28;;;;;;;;;;;17.80;99.90;;;;;;5046979;28;19944;-72
2022/05/13 03:12:53;;;;;;;;;;;17.80;99.90;;;;;;5050669;28;20007;-74
2022/05/13 03:15:19;;;;;;;;;;;17.80;99.90;;;;;;5055711;28;19948;-73
2022/05/13 03:17:44;;;;;;;;;;;17.80;99.90;;;;;;5049779;28;19920;-73
2022/05/13 03:20:13;;;;;;;;;;;17.70;99.90;;;;;;5054679;28;19916;-71
2022/05/13 03:22:38;;;;;;;;;;;17.70;99.90;;;;;;5052444;28;19996;-70
2022/05/13 03:25:04;;;;;;;;;;;17.70;99.90;;;;;;5053011;28;20265;-73
2022/05/13 03:27:31;;;;;;;;;;;17.70;99.90;;;;;;5054257;28;19935;-74
2022/05/13 03:29:57;;;;;;;;;;;17.70;99.90;;;;;;5053434;28;20346;-72
2022/05/13 03:32:22;;;;;;;;;;;17.70;99.90;;;;;;5055527;28;19913;-74
2022/05/13 03:34:48;;;;;;;;;;;17.70;99.90;;;;;;5054191;28;19913;-72
2022/05/13 03:37:13;;;;;;;;;;;17.60;99.90;;;;;;5052137;28;20281;-72
2022/05/13 03:39:39;;;;;;;;;;;17.70;99.90;;;;;;5050469;28;19936;-70
2022/05/13 03:42:05;;;;;;;;;;;17.70;99.90;;;;;;5054355;28;19908;-70
2022/05/13 03:44:31;;;;;;;;;;;17.70;99.90;;;;;;5050924;28;19909;-72
2022/05/13 03:46:56;;;;;;;;;;;17.70;99.90;;;;;;5051090;28;19919;-75
2022/05/13 03:49:22;;;;;;;;;;;17.70;99.90;;;;;;5046943;28;19916;-72
2022/05/13 03:51:47;;;;;;;;;;;17.60;99.90;;;;;;5040538;28;19999;-71
2022/05/13 03:54:14;;;;;;;;;;;17.60;99.90;;;;;;5042511;28;19913;-72
2022/05/13 03:56:39;;;;;;;;;;;17.60;99.90;;;;;;5040687;28;19920;-72
2022/05/13 03:59:05;;;;;;;;;;;17.60;99.90;;;;;;5042701;28;19920;-75
2022/05/13 04:01:31;;;;;;;;;;;17.70;99.90;;;;;;5045637;28;19917;-73
2022/05/13 04:03:56;;;;;;;;;;;17.70;99.90;;;;;;5044520;28;19923;-72
2022/05/13 04:09:06;;;;;;;;;;;17.80;99.90;;;;;;5040931;28;20246;-72
2022/05/13 04:11:37;;;;;;;;;;;17.70;99.90;;;;;;5043824;28;19931;-71
2022/05/13 04:16:47;;;;;;;;;;;17.70;99.90;;;;;;5045551;28;19951;-74
2022/05/13 04:19:13;;;;;;;;;;;17.70;99.90;;;;;;5044969;28;19920;-71
2022/05/13 04:21:39;;;;;;;;;;;17.70;99.90;;;;;;5042136;28;19913;-73
2022/05/13 04:24:07;;;;;;;;;;;17.80;99.90;;;;;;5021827;28;19979;-71
2022/05/13 04:26:32;;;;;;;;;;;17.80;99.90;;;;;;5038016;28;19919;-71
2022/05/13 04:28:58;;;;;;;;;;;17.90;99.90;;;;;;5042176;28;20336;-76
2022/05/13 04:31:28;;;;;;;;;;;18.00;99.90;;;;;;5041273;28;19913;-73
2022/05/13 04:33:55;;;;;;;;;;;18.10;99.90;;;;;;5049086;28;19975;-74
2022/05/13 04:36:21;;;;;;;;;;;18.10;99.90;;;;;;5044253;28;19931;-73
2022/05/13 04:38:47;;;;;;;;;;;18.20;99.90;;;;;;5043447;28;19917;-73
2022/05/13 04:43:58;;;;;;;;;;;18.20;99.90;;;;;;5040083;28;19920;-72
2022/05/13 04:46:23;;;;;;;;;;;18.30;99.90;;;;;;5040732;28;20278;-73
2022/05/13 04:48:50;;;;;;;;;;;18.40;99.90;;;;;;5041156;28;19913;-75
2022/05/13 04:51:19;;;;;;;;;;;18.50;99.90;;;;;;5047650;28;19913;-71
2022/05/13 04:53:45;;;;;;;;;;;18.50;99.90;;;;;;5047246;28;19925;-71
2022/05/13 04:56:11;;;;;;;;;;;18.60;99.90;;;;;;5049657;28;19931;-71
2022/05/13 04:58:38;;;;;;;;;;;18.60;99.90;;;;;;5053200;28;19917;-71
2022/05/13 05:01:05;;;;;;;;;;;18.60;99.90;;;;;;5047062;28;19987;-72
2022/05/13 05:03:32;;;;;;;;;;;18.70;99.90;;;;;;5054304;28;19909;-73
2022/05/13 05:05:58;;;;;;;;;;;18.80;99.90;;;;;;5044204;28;19912;-72
2022/05/13 05:08:24;;;;;;;;;;;18.80;99.90;;;;;;5049263;28;19927;-71
2022/05/13 05:10:49;;;;;;;;;;;18.90;99.90;;;;;;5049804;28;19996;-71
2022/05/13 05:13:20;;;;;;;;;;;19.00;99.90;;;;;;5031854;28;19916;-72
2022/05/13 05:15:45;;;;;;;;;;;19.10;99.90;;;;;;5049140;28;19916;-71
2022/05/13 05:18:12;;;;;;;;;;;19.20;99.90;;;;;;5046566;28;20004;-72
2022/05/13 05:20:37;;;;;;;;;;;19.30;99.90;;;;;;5049748;28;20000;-72
2022/05/13 05:23:03;;;;;;;;;;;19.30;99.90;;;;;;5046771;28;19992;-71
2022/05/13 05:25:29;;;;;;;;;;;19.40;99.90;;;;;;5052481;28;19913;-73
2022/05/13 05:27:56;;;;;;;;;;;19.50;99.90;;;;;;5052737;28;19999;-72
2022/05/13 05:30:21;;;;;;;;;;;19.60;99.90;;;;;;5052964;28;19917;-73
2022/05/13 05:32:47;;;;;;;;;;;19.70;99.90;;;;;;5053871;28;19920;-73
2022/05/13 05:35:14;;;;;;;;;;;19.80;99.90;;;;;;5061368;28;19909;-73
2022/05/13 05:37:40;;;;;;;;;;;20.00;99.90;;;;;;5051824;28;20304;-71
2022/05/13 05:40:06;;;;;;;;;;;20.20;99.90;;;;;;5050141;28;19913;-74
2022/05/13 05:42:31;;;;;;;;;;;20.40;99.90;;;;;;5061674;28;19988;-73
2022/05/13 05:44:57;;;;;;;;;;;20.60;99.90;;;;;;5065745;28;19935;-72
2022/05/13 05:47:23;;;;;;;;;;;20.70;99.90;;;;;;5067759;28;19912;-72
2022/05/13 05:49:49;;;;;;;;;;;20.90;99.90;;;;;;5051559;28;19967;-72
2022/05/13 05:52:15;;;;;;;;;;;21.10;99.90;;;;;;5049358;28;20072;-72
2022/05/13 05:57:26;;;;;;;;;;;21.20;99.90;;;;;;5051812;28;19923;-72
2022/05/13 05:59:52;;;;;;;;;;;21.20;99.90;;;;;;5052181;28;19982;-71
2022/05/13 06:02:17;;;;;;;;;;;21.20;99.90;;;;;;5051287;28;20635;-72
2022/05/13 06:04:43;;;;;;;;;;;21.30;99.90;;;;;;5050763;28;20370;-73
2022/05/13 06:07:14;;;;;;;;;;;21.30;99.90;;;;;;5050856;28;19913;-73
2022/05/13 06:09:40;;;;;;;;;;;21.30;99.90;;;;;;5049450;28;19916;-71
2022/05/13 06:12:07;;;;;;;;;;;21.40;99.90;;;;;;5052648;28;20325;-70
2022/05/13 06:14:33;;;;;;;;;;;21.50;99.90;;;;;;5051903;28;19913;-72
2022/05/13 06:16:59;;;;;;;;;;;21.60;99.90;;;;;;5051296;28;19940;-73
2022/05/13 06:19:25;;;;;;;;;;;21.70;99.90;;;;;;5048991;28;19989;-71
2022/05/13 06:21:51;;;;;;;;;;;21.80;99.90;;;;;;5051627;28;19913;-72
2022/05/13 06:24:18;;;;;;;;;;;21.90;99.90;;;;;;5052525;28;19913;-71
2022/05/13 06:26:48;;;;;;;;;;;21.90;99.90;;;;;;5032460;28;20374;-71
2022/05/13 06:29:15;;;;;;;;;;;21.80;99.90;;;;;;5049854;28;19912;-72
2022/05/13 06:31:41;;;;;;;;;;;21.80;99.90;;;;;;5052386;28;20387;-71
2022/05/13 06:34:07;;;;;;;;;;;21.80;99.90;;;;;;5047538;28;19913;-72
2022/05/13 06:36:33;;;;;;;;;;;21.70;99.90;;;;;;5042335;28;19928;-72
2022/05/13 06:38:59;;;;;;;;;;;21.70;99.90;;;;;;5047463;28;19916;-72
2022/05/13 06:41:25;;;;;;;;;;;21.70;99.90;;;;;;5050485;28;20271;-72
2022/05/13 06:43:51;;;;;;;;;;;21.70;99.90;;;;;;5048879;28;19917;-72
2022/05/13 06:46:16;;;;;;;;;;;21.70;99.90;;;;;;5049707;28;19913;-71
2022/05/13 06:48:42;;;;;;;;;;;21.70;99.90;;;;;;5050030;28;19920;-71
2022/05/13 06:51:07;;;;;;;;;;;21.70;99.90;;;;;;5049326;28;20011;-71
2022/05/13 06:53:33;;;;;;;;;;;21.70;99.90;;;;;;5029904;28;20368;-71
2022/05/13 06:55:59;;;;;;;;;;;21.80;99.90;;;;;;5059938;28;19971;-72
2022/05/13 06:58:24;;;;;;;;;;;21.80;99.90;;;;;;5051693;28;19921;-73
2022/05/13 07:00:50;;;;;;;;;;;22.00;99.90;;;;;;5050785;28;19958;-73
2022/05/13 07:03:17;;;;;;;;;;;22.10;99.90;;;;;;5033910;28;19909;-72
2022/05/13 07:05:43;;;;;;;;;;;22.20;99.90;;;;;;5051438;28;20353;-72
2022/05/13 07:08:09;;;;;;;;;;;22.20;99.90;;;;;;5048776;28;19956;-73
2022/05/13 07:10:35;;;;;;;;;;;22.20;99.90;;;;;;5051367;28;19928;-76
2022/05/13 07:13:06;;;;;;;;;;;22.10;99.90;;;;;;5059709;28;19909;-72
2022/05/13 07:15:32;;;;;;;;;;;22.10;99.90;;;;;;5068652;28;19909;-73
2022/05/13 07:17:58;;;;;;;;;;;22.00;99.90;;;;;;5057448;28;20382;-71
2022/05/13 07:20:25;;;;;;;;;;;22.10;99.90;;;;;;5051337;28;20265;-71
2022/05/13 07:22:51;;;;;;;;;;;22.00;99.90;;;;;;5044887;28;20041;-71
2022/05/13 07:25:17;;;;;;;;;;;22.00;99.90;;;;;;5049210;28;20012;-71
2022/05/13 07:27:43;;;;;;;;;;;22.10;99.90;;;;;;5051553;28;20403;-71
2022/05/13 07:30:09;;;;;;;;;;;22.20;99.90;;;;;;5056470;28;20149;-72
2022/05/13 07:32:35;;;;;;;;;;;22.40;99.90;;;;;;5045507;28;19966;-72
2022/05/13 07:35:00;;;;;;;;;;;22.60;99.90;;;;;;5061439;28;19916;-72
2022/05/13 07:37:26;;;;;;;;;;;22.70;99.90;;;;;;5063977;28;19920;-71
2022/05/13 07:42:35;;;;;;;;;;;22.80;99.90;;;;;;5050337;28;19935;-71
2022/05/13 07:45:01;;;;;;;;;;;22.80;99.90;;;;;;5043032;28;19913;-72
2022/05/13 07:47:27;;;;;;;;;;;22.70;99.90;;;;;;5062483;28;20326;-72
2022/05/13 07:49:53;;;;;;;;;;;22.70;99.90;;;;;;5067971;28;19909;-72
2022/05/13 07:52:19;;;;;;;;;;;22.90;99.90;;;;;;5052571;28;19916;-73
2022/05/13 07:54:44;;;;;;;;;;;23.00;99.90;;;;;;5075378;28;19948;-69
2022/05/13 07:57:10;;;;;;;;;;;23.10;99.90;;;;;;5050614;28;19928;-70
2022/05/13 08:00:24;;;;;;;;;;;23.00;99.90;;;;;;5055553;28;19912;-69
2022/05/13 08:02:21;;;;;;;;;;;22.90;99.90;;;;;;5051681;28;19920;-70
2022/05/13 08:04:47;;;;;;;;;;;22.90;99.90;;;;;;5060963;28;20392;-70
2022/05/13 08:07:12;;;;;;;;;;;22.90;99.90;;;;;;5034702;28;19909;-70
2022/05/13 08:09:38;;;;;;;;;;;22.90;99.90;;;;;;5049438;28;19913;-71
2022/05/13 08:12:04;;;;;;;;;;;22.80;99.90;;;;;;5056480;28;19924;-70
2022/05/13 08:14:29;;;;;;;;;;;22.70;99.90;;;;;;5027999;28;19919;-70
2022/05/13 08:16:55;;;;;;;;;;;22.80;99.90;;;;;;5056348;28;19916;-70
2022/05/13 08:19:21;;;;;;;;;;;22.70;99.90;;;;;;5065430;28;20381;-70
2022/05/13 08:21:47;;;;;;;;;;;22.60;99.90;;;;;;5051430;28;19964;-69
2022/05/13 08:24:13;;;;;;;;;;;22.70;99.90;;;;;;5055329;28;19965;-70
2022/05/13 08:26:40;;;;;;;;;;;22.80;99.90;;;;;;5050867;28;20335;-70
2022/05/13 08:29:05;;;;;;;;;;;22.80;99.90;;;;;;5045803;28;19922;-71
2022/05/13 08:31:31;;;;;;;;;;;22.80;99.90;;;;;;5056291;28;20305;-70
2022/05/13 08:33:57;;;;;;;;;;;22.70;99.90;;;;;;5070358;28;19913;-69
2022/05/13 08:36:22;;;;;;;;;;;22.60;99.90;;;;;;5058288;28;19970;-70
2022/05/13 08:38:50;;;;;;;;;;;22.50;99.90;;;;;;5051359;28;20333;-70
2022/05/13 08:41:42;;;;;;;;;;;22.50;99.90;;;;;;5032902;28;19908;-70
2022/05/13 08:44:09;;;;;;;;;;;22.60;99.90;;;;;;5032642;28;19912;-70
2022/05/13 08:46:38;;;;;;;;;;;22.70;99.90;;;;;;5050604;28;19913;-70
2022/05/13 08:49:22;;;;;;;;;;;22.80;99.90;;;;;;5053061;28;19994;-70
2022/05/13 08:51:59;;;;;;;;;;;23.00;99.90;;;;;;5069306;28;19908;-71
2022/05/13 08:54:30;;;;;;;;;;;23.00;99.90;;;;;;5059274;28;19913;-70
2022/05/13 08:56:58;;;;;;;;;;;23.10;99.90;;;;;;5042836;28;19913;-70
2022/05/13 08:59:31;;;;;;;;;;;23.00;99.90;;;;;;5043836;28;20199;-69
2022/05/13 09:02:15;;;;;;;;;;;23.00;99.90;;;;;;5058119;28;20366;-69
2022/05/13 09:04:47;;;;;;;;;;;23.20;99.90;;;;;;5052473;28;19966;-69
2022/05/13 09:07:16;;;;;;;;;;;23.40;99.90;;;;;;5051540;28;19967;-69
2022/05/13 09:09:43;;;;;;;;;;;23.50;99.90;;;;;;5052401;28;19959;-68
2022/05/13 09:12:22;;;;;;;;;;;23.40;99.90;;;;;;5052199;28;19913;-69
2022/05/13 09:14:57;;;;;;;;;;;23.30;99.90;;;;;;5048798;28;19917;-68
2022/05/13 09:17:25;;;;;;;;;;;23.30;99.90;;;;;;5047518;28;19995;-69
2022/05/13 09:20:00;;;;;;;;;;;23.30;99.90;;;;;;5031864;28;19913;-69
2022/05/13 09:22:38;;;;;;;;;;;23.40;99.90;;;;;;5046747;28;19936;-69
2022/05/13 09:25:04;;;;;;;;;;;23.60;99.90;;;;;;5051744;28;20043;-70
2022/05/13 09:27:41;;;;;;;;;;;23.70;99.90;;;;;;5059391;28;19987;-69
2022/05/13 09:30:07;;;;;;;;;;;23.80;99.90;;;;;;5053679;28;19998;-69
2022/05/13 09:32:33;;;;;;;;;;;23.50;99.90;;;;;;5047460;28;20476;-68
2022/05/13 09:35:05;;;;;;;;;;;23.40;99.90;;;;;;5034362;28;19923;-68
2022/05/13 09:37:39;;;;;;;;;;;23.50;99.90;;;;;;5053352;28;19913;-67
2022/05/13 09:40:10;;;;;;;;;;;23.50;99.90;;;;;;5057130;28;19938;-69
2022/05/13 09:42:38;;;;;;;;;;;23.40;99.90;;;;;;5065390;28;19908;-68
2022/05/13 09:45:22;;;;;;;;;;;23.50;99.90;;;;;;5053130;28;20398;-68
2022/05/13 09:48:05;;;;;;;;;;;23.50;99.90;;;;;;5048323;28;20362;-69
2022/05/13 09:50:33;;;;;;;;;;;23.60;99.90;;;;;;5033355;28;19928;-68
2022/05/13 09:53:16;;;;;;;;;;;23.50;99.90;;;;;;5034609;28;20368;-69
2022/05/13 09:55:41;;;;;;;;;;;23.50;99.90;;;;;;5052184;28;19920;-70
2022/05/13 09:58:15;;;;;;;;;;;23.60;99.90;;;;;;5040322;28;20300;-68
2022/05/13 10:00:42;;;;;;;;;;;23.80;99.90;;;;;;5062969;28;19912;-69
2022/05/13 10:03:24;;;;;;;;;;;23.90;99.90;;;;;;5057859;28;19917;-68
2022/05/13 10:06:01;;;;;;;;;;;23.90;99.90;;;;;;5053474;28;19913;-68
2022/05/13 10:08:28;;;;;;;;;;;23.80;99.90;;;;;;5060781;28;19913;-69
2022/05/13 10:14:00;;;;;;;;;;;23.70;99.90;;;;;;5052875;28;20361;-68
2022/05/13 10:16:29;;;;;;;;;;;23.80;99.90;;;;;;5030439;28;19917;-69
2022/05/13 10:18:56;;;;;;;;;;;23.80;99.90;;;;;;5046343;28;19917;-69
2022/05/13 10:21:24;;;;;;;;;;;24.00;99.90;;;;;;5047524;28;19913;-68
2022/05/13 10:24:19;;;;;;;;;;;24.20;99.90;;;;;;5058167;28;20334;-68
2022/05/13 10:26:45;;;;;;;;;;;24.30;99.90;;;;;;5014258;28;19956;-69
2022/05/13 10:29:28;;;;;;;;;;;24.10;99.90;;;;;;5038291;28;20011;-69
2022/05/13 10:31:55;;;;;;;;;;;24.20;99.90;;;;;;5052603;28;20264;-69
2022/05/13 10:34:35;;;;;;;;;;;24.40;99.90;;;;;;5052455;28;19909;-69
2022/05/13 10:37:04;;;;;;;;;;;24.30;99.90;;;;;;5052479;28;19913;-69
2022/05/13 10:39:34;;;;;;;;;;;24.40;99.90;;;;;;5040738;28;20003;-69
2022/05/13 10:42:20;;;;;;;;;;;24.40;99.90;;;;;;5048170;28;19913;-69
2022/05/13 10:45:02;;;;;;;;;;;24.10;99.90;;;;;;5020044;28;19916;-68
2022/05/13 10:47:33;;;;;;;;;;;24.00;99.90;;;;;;5047544;28;20234;-68
2022/05/13 10:49:59;;;;;;;;;;;23.80;99.90;;;;;;5050005;28;20262;-68
2022/05/13 10:52:25;;;;;;;;;;;23.60;99.90;;;;;;5052790;28;19913;-69
2022/05/13 10:55:00;;;;;;;;;;;23.50;99.90;;;;;;5050632;28;20370;-69
2022/05/13 10:57:44;;;;;;;;;;;23.40;99.90;;;;;;5036616;28;19920;-68
2022/05/13 11:00:15;;;;;;;;;;;23.30;99.90;;;;;;5030200;28;19913;-67
2022/05/13 11:02:47;;;;;;;;;;;23.10;99.90;;;;;;5033236;28;19996;-68
2022/05/13 11:05:35;;;;;;;;;;;23.10;99.90;;;;;;5051910;28;19909;-71
2022/05/13 11:08:19;;;;;;;;;;;23.10;99.90;;;;;;5050737;28;19974;-69
2022/05/13 11:10:50;;;;;;;;;;;23.00;99.90;;;;;;5052282;28;20341;-69
2022/05/13 11:13:19;;;;;;;;;;;23.00;99.90;;;;;;5057290;28;19909;-69
2022/05/13 11:15:51;;;;;;;;;;;23.00;99.90;;;;;;5050592;28;19917;-69
2022/05/13 11:18:35;;;;;;;;;;;22.90;99.90;;;;;;5033838;28;20378;-68
2022/05/13 11:21:20;;;;;;;;;;;22.90;99.90;;;;;;5051021;28;20060;-68
2022/05/13 11:26:59;;;;;;;;;;;23.10;99.90;;;;;;5056679;28;19919;-70
2022/05/13 11:29:37;;;;;;;;;;;23.20;99.90;;;;;;5057390;28;20280;-69
2022/05/13 11:32:08;;;;;;;;;;;23.30;99.90;;;;;;5049163;28;19920;-70
2022/05/13 11:34:49;;;;;;;;;;;23.30;99.90;;;;;;5052074;28;20298;-70
2022/05/13 11:37:17;;;;;;;;;;;23.20;99.90;;;;;;5050105;28;19916;-71
2022/05/13 11:40:01;;;;;;;;;;;23.10;99.90;;;;;;5031197;28;19917;-70
2022/05/13 11:42:27;;;;;;;;;;;23.20;99.90;;;;;;5052208;28;19920;-69
2022/05/13 11:45:11;;;;;;;;;;;23.30;99.90;;;;;;5050215;28;20305;-69
2022/05/13 11:47:37;;;;;;;;;;;23.20;99.90;;;;;;5051238;28;20363;-69
2022/05/13 11:50:03;;;;;;;;;;;23.20;99.90;;;;;;5051225;28;19909;-68
2022/05/13 11:52:44;;;;;;;;;;;23.20;99.90;;;;;;5048247;28;19913;-72
2022/05/13 11:55:18;;;;;;;;;;;23.10;99.90;;;;;;5047078;28;19958;-70
2022/05/13 11:57:48;;;;;;;;;;;23.30;99.90;;;;;;5049312;28;19917;-69
2022/05/13 12:00:34;;;;;;;;;;;23.30;99.90;;;;;;5051080;28;20078;-69
2022/05/13 12:03:02;;;;;;;;;;;23.40;99.90;;;;;;5048601;28;20314;-70
2022/05/13 12:05:30;;;;;;;;;;;23.60;99.90;;;;;;5048040;28;19920;-70
2022/05/13 12:08:18;;;;;;;;;;;23.70;99.90;;;;;;5051584;28;19917;-68
2022/05/13 12:11:02;;;;;;;;;;;23.60;99.90;;;;;;5027964;28;19932;-70
2022/05/13 12:13:34;;;;;;;;;;;23.60;99.90;;;;;;5047274;28;19927;-69
2022/05/13 12:16:00;;;;;;;;;;;23.80;99.90;;;;;;5015523;28;19913;-69
2022/05/13 12:18:41;;;;;;;;;;;23.60;99.90;;;;;;5034645;28;20372;-70
2022/05/13 12:21:22;;;;;;;;;;;23.50;99.90;;;;;;5047996;28;20285;-70
2022/05/13 12:23:48;;;;;;;;;;;23.30;99.90;;;;;;5057355;28;20411;-69
2022/05/13 12:26:14;;;;;;;;;;;23.20;99.90;;;;;;5073244;28;19944;-68
2022/05/13 12:28:48;;;;;;;;;;;23.20;99.90;;;;;;5061591;28;19909;-67
2022/05/13 12:31:18;;;;;;;;;;;23.30;99.90;;;;;;5059157;28;19951;-68
2022/05/13 12:37:33;;;;;;;;;;;23.20;99.90;;;;;;5027190;28;19916;-70
2022/05/13 12:39:46;;;;;;;;;;;23.40;99.90;;;;;;5056765;28;19923;-71
2022/05/13 12:42:12;;;;;;;;;;;23.50;99.90;;;;;;5055122;28;19967;-69
2022/05/13 12:44:58;;;;;;;;;;;23.70;99.90;;;;;;5055416;28;19912;-69
2022/05/13 12:47:31;;;;;;;;;;;23.60;99.90;;;;;;5053790;28;19948;-70
2022/05/13 12:49:56;;;;;;;;;;;23.90;99.90;;;;;;5067731;28;19971;-70
2022/05/13 12:52:34;;;;;;;;;;;24.00;99.90;;;;;;5063147;28;19909;-70
2022/05/13 12:55:18;;;;;;;;;;;24.00;99.90;;;;;;5042293;28;19916;-67
2022/05/13 12:57:54;;;;;;;;;;;23.90;99.90;;;;;;5060311;28;19916;-68
2022/05/13 13:00:23;;;;;;;;;;;23.90;99.90;;;;;;5084324;28;19931;-69
2022/05/13 13:02:53;;;;;;;;;;;24.20;99.90;;;;;;5079582;28;19931;-69
2022/05/13 13:05:23;;;;;;;;;;;24.20;99.90;;;;;;5059960;28;20287;-67
2022/05/13 13:07:52;;;;;;;;;;;24.20;99.90;;;;;;5064950;28;19919;-68
2022/05/13 13:10:18;;;;;;;;;;;24.10;99.90;;;;;;5063101;28;21586;-70
2022/05/13 13:13:00;;;;;;;;;;;24.30;99.90;;;;;;5067263;28;19924;-70
2022/05/13 13:15:28;;;;;;;;;;;24.20;99.90;;;;;;5044356;28;19935;-69
2022/05/13 13:17:58;;;;;;;;;;;24.10;99.90;;;;;;5069486;28;19927;-70
2022/05/13 13:20:27;;;;;;;;;;;24.10;99.90;;;;;;5076508;28;19999;-70
2022/05/13 13:22:55;;;;;;;;;;;24.00;99.90;;;;;;5063887;28;20000;-71
2022/05/13 13:25:24;;;;;;;;;;;24.20;99.90;;;;;;5065438;28;19915;-70
2022/05/13 13:28:05;;;;;;;;;;;24.40;99.90;;;;;;5063267;28;19948;-72
2022/05/13 13:30:31;;;;;;;;;;;24.60;99.90;;;;;;5059175;28;19916;-72
2022/05/13 13:32:57;;;;;;;;;;;24.60;99.90;;;;;;5060755;28;20332;-73
2022/05/13 13:35:29;;;;;;;;;;;24.80;99.90;;;;;;5057331;28;20032;-72
2022/05/13 13:37:55;;;;;;;;;;;24.80;99.90;;;;;;5062097;28;19980;-73
2022/05/13 13:40:22;;;;;;;;;;;24.70;99.90;;;;;;5060764;28;20038;-73
2022/05/13 13:42:47;;;;;;;;;;;24.90;99.90;;;;;;5054401;28;19931;-70
2022/05/13 13:45:15;;;;;;;;;;;24.90;99.90;;;;;;5047098;28;20300;-72
2022/05/13 13:47:43;;;;;;;;;;;25.00;99.90;;;;;;5051497;28;19917;-71
2022/05/13 13:50:14;;;;;;;;;;;24.80;99.90;;;;;;5051307;28;19917;-72
2022/05/13 13:52:41;;;;;;;;;;;25.00;99.90;;;;;;5049072;28;19916;-71
2022/05/13 13:55:09;;;;;;;;;;;25.20;99.90;;;;;;5057359;28;19940;-72
2022/05/13 13:57:53;;;;;;;;;;;25.10;99.90;;;;;;5049195;28;19924;-71
2022/05/13 14:00:21;;;;;;;;;;;25.10;99.90;;;;;;5052614;28;19909;-71
2022/05/13 14:02:48;;;;;;;;;;;24.90;99.90;;;;;;5049515;28;19912;-71
2022/05/13 14:05:16;;;;;;;;;;;24.80;99.90;;;;;;5056628;28;20325;-71
2022/05/13 14:07:44;;;;;;;;;;;25.00;99.90;;;;;;5039762;28;20363;-72
2022/05/13 14:10:11;;;;;;;;;;;25.00;99.90;;;;;;5046703;28;19912;-72
2022/05/13 14:12:38;;;;;;;;;;;24.90;99.90;;;;;;5054355;28;19913;-71
2022/05/13 14:15:08;;;;;;;;;;;24.80;99.90;;;;;;5060016;28;20388;-70
2022/05/13 14:17:33;;;;;;;;;;;24.70;99.90;;;;;;5056571;28;20445;-71
2022/05/13 14:20:10;;;;;;;;;;;24.70;99.90;;;;;;5058043;28;20004;-71
2022/05/13 14:22:55;;;;;;;;;;;24.70;99.90;;;;;;5063572;28;19913;-71
2022/05/13 14:25:21;;;;;;;;;;;24.60;99.90;;;;;;5033777;28;19921;-71
2022/05/13 14:27:47;;;;;;;;;;;24.40;99.90;;;;;;5060539;28;20352;-72
2022/05/13 14:30:13;;;;;;;;;;;24.30;99.90;;;;;;5050303;28;19916;-70
2022/05/13 14:32:40;;;;;;;;;;;24.40;99.90;;;;;;5059417;28;19965;-72
2022/05/13 14:35:14;;;;;;;;;;;24.60;99.90;;;;;;5061258;28;19923;-70
2022/05/13 14:37:49;;;;;;;;;;;24.50;99.90;;;;;;5064398;28;19916;-72
2022/05/13 14:40:18;;;;;;;;;;;24.40;99.90;;;;;;5052528;28;20247;-71
2022/05/13 14:42:45;;;;;;;;;;;24.40;99.90;;;;;;5059553;28;19940;-72
2022/05/13 14:45:26;;;;;;;;;;;24.40;99.90;;;;;;5039694;28;19920;-70
2022/05/13 14:47:53;;;;;;;;;;;24.60;99.90;;;;;;5051318;28;19916;-67
2022/05/13 14:50:20;;;;;;;;;;;24.80;99.90;;;;;;5056646;28;19913;-69
2022/05/13 14:52:48;;;;;;;;;;;24.90;99.90;;;;;;5054173;28;19963;-69